< < Back
Terminal Aerodrome Forecast


Current Version              Previous Versions:   1  2  3  4  5  6  7  8  9  

Terminal Aerodrome Forecast

446
FTUS42 KFFC 210520
TAFCSG
TAF
KCSG 210520Z 2106/2206 28008KT P6SM SCT060
     FM210800 31009KT P6SM FEW070
     FM211500 32009G18KT P6SM FEW040
     FM212000 29007KT P6SM FEW050
     FM220000 26004KT P6SM SCT250=



Latest METAR

219
SAUS70 KWBC 210600
MTRCSG
METAR KCSG 210551Z AUTO 33007KT 10SM CLR 16/09 A2991 RMK AO2 SLP123
T01610094 10228 20161 51015


USA.gov is the U.S. government's official web portal to all federal, state and local government web resources and services.